Terminal Aerodrome Forecast
Issued by NWS Cleveland, OH

Home | Current Version | Previous Version | Graphics & Text | Print | Product List | Glossary On
Versions: 1 2 3 4 5 6 7 8 9 10 11 12 13 14 15 16 17 18 19
120
FTUS41 KCLE 301411 AAA
TAFCAK
TAF AMD
KCAK 301411Z 3014/0112 10015G25KT P6SM VCSH BKN015 OVC060
      TEMPO 3014/3018 5SM -RA BR OVC015
     FM301800 10012G20KT P6SM BKN015 OVC025
     FM010300 13012KT P6SM SCT006 OVC012=

USA.gov is the U.S. government's official web portal to all federal, state and local government web resources and services.